sensor_id;sensor_type;location;lat;lon;timestamp;P1;durP1;ratioP1;P2;durP2;ratioP2
15356;SDS011;7778;48.792;9.260;2023-07-22T00:01:40;4.28;;;2.05;;
15356;SDS011;7778;48.792;9.260;2023-07-22T00:04:25;4.03;;;1.90;;
15356;SDS011;7778;48.792;9.260;2023-07-22T00:07:11;2.05;;;1.83;;
15356;SDS011;7778;48.792;9.260;2023-07-22T00:09:57;3.10;;;2.00;;
15356;SDS011;7778;48.792;9.260;2023-07-22T00:12:44;2.85;;;1.98;;
15356;SDS011;7778;48.792;9.260;2023-07-22T00:15:30;3.22;;;1.98;;
15356;SDS011;7778;48.792;9.260;2023-07-22T00:18:16;4.22;;;2.10;;
15356;SDS011;7778;48.792;9.260;2023-07-22T00:21:02;3.55;;;2.20;;
15356;SDS011;7778;48.792;9.260;2023-07-22T00:23:48;3.33;;;1.98;;
15356;SDS011;7778;48.792;9.260;2023-07-22T00:26:34;3.67;;;2.20;;
15356;SDS011;7778;48.792;9.260;2023-07-22T00:29:21;3.17;;;1.80;;
15356;SDS011;7778;48.792;9.260;2023-07-22T00:32:07;3.95;;;2.00;;
15356;SDS011;7778;48.792;9.260;2023-07-22T00:34:53;2.70;;;1.65;;
15356;SDS011;7778;48.792;9.260;2023-07-22T00:37:39;3.83;;;2.00;;
15356;SDS011;7778;48.792;9.260;2023-07-22T00:40:24;3.97;;;2.15;;
15356;SDS011;7778;48.792;9.260;2023-07-22T00:43:10;5.70;;;2.50;;
15356;SDS011;7778;48.792;9.260;2023-07-22T00:45:57;4.95;;;2.33;;
15356;SDS011;7778;48.792;9.260;2023-07-22T00:48:43;2.88;;;1.33;;
15356;SDS011;7778;48.792;9.260;2023-07-22T00:51:30;2.25;;;1.70;;
15356;SDS011;7778;48.792;9.260;2023-07-22T00:54:16;2.70;;;1.73;;
15356;SDS011;7778;48.792;9.260;2023-07-22T00:57:01;2.67;;;2.03;;
15356;SDS011;7778;48.792;9.260;2023-07-22T00:59:47;3.72;;;1.98;;
15356;SDS011;7778;48.792;9.260;2023-07-22T01:02:35;5.85;;;1.77;;
15356;SDS011;7778;48.792;9.260;2023-07-22T01:05:20;2.15;;;1.67;;
15356;SDS011;7778;48.792;9.260;2023-07-22T01:08:06;2.50;;;1.90;;
15356;SDS011;7778;48.792;9.260;2023-07-22T01:10:52;2.45;;;1.65;;
15356;SDS011;7778;48.792;9.260;2023-07-22T01:13:38;5.82;;;2.30;;
15356;SDS011;7778;48.792;9.260;2023-07-22T01:16:24;2.95;;;2.13;;
15356;SDS011;7778;48.792;9.260;2023-07-22T01:19:12;4.78;;;1.90;;
15356;SDS011;7778;48.792;9.260;2023-07-22T01:22:02;3.53;;;1.60;;
15356;SDS011;7778;48.792;9.260;2023-07-22T01:24:52;5.55;;;2.17;;
15356;SDS011;7778;48.792;9.260;2023-07-22T01:27:38;2.75;;;2.08;;
15356;SDS011;7778;48.792;9.260;2023-07-22T01:30:24;2.13;;;1.90;;
15356;SDS011;7778;48.792;9.260;2023-07-22T01:33:11;2.63;;;1.92;;
15356;SDS011;7778;48.792;9.260;2023-07-22T01:35:57;2.55;;;1.67;;
15356;SDS011;7778;48.792;9.260;2023-07-22T01:38:43;2.45;;;2.25;;
15356;SDS011;7778;48.792;9.260;2023-07-22T01:41:29;3.63;;;1.80;;
15356;SDS011;7778;48.792;9.260;2023-07-22T01:44:15;2.38;;;2.13;;
15356;SDS011;7778;48.792;9.260;2023-07-22T01:47:01;2.83;;;1.75;;
15356;SDS011;7778;48.792;9.260;2023-07-22T01:49:47;4.32;;;2.13;;
15356;SDS011;7778;48.792;9.260;2023-07-22T01:52:33;3.53;;;2.45;;
15356;SDS011;7778;48.792;9.260;2023-07-22T01:55:19;1.45;;;1.35;;
15356;SDS011;7778;48.792;9.260;2023-07-22T01:58:06;10.45;;;2.05;;
15356;SDS011;7778;48.792;9.260;2023-07-22T02:00:51;2.75;;;2.08;;
15356;SDS011;7778;48.792;9.260;2023-07-22T02:03:38;2.75;;;2.13;;
15356;SDS011;7778;48.792;9.260;2023-07-22T02:06:24;4.07;;;1.95;;
15356;SDS011;7778;48.792;9.260;2023-07-22T02:09:09;5.07;;;2.13;;
15356;SDS011;7778;48.792;9.260;2023-07-22T02:11:57;4.35;;;2.08;;
15356;SDS011;7778;48.792;9.260;2023-07-22T02:14:44;2.22;;;1.60;;
15356;SDS011;7778;48.792;9.260;2023-07-22T02:17:29;3.17;;;1.90;;
15356;SDS011;7778;48.792;9.260;2023-07-22T02:20:15;3.25;;;1.90;;
15356;SDS011;7778;48.792;9.260;2023-07-22T02:23:02;2.58;;;1.63;;
15356;SDS011;7778;48.792;9.260;2023-07-22T02:25:48;2.28;;;1.73;;
15356;SDS011;7778;48.792;9.260;2023-07-22T02:28:34;4.55;;;2.22;;
15356;SDS011;7778;48.792;9.260;2023-07-22T02:31:20;2.70;;;2.22;;
15356;SDS011;7778;48.792;9.260;2023-07-22T02:34:07;3.75;;;2.20;;
15356;SDS011;7778;48.792;9.260;2023-07-22T02:36:52;4.40;;;2.30;;
15356;SDS011;7778;48.792;9.260;2023-07-22T02:39:38;4.47;;;2.33;;
15356;SDS011;7778;48.792;9.260;2023-07-22T02:42:23;5.93;;;2.70;;
15356;SDS011;7778;48.792;9.260;2023-07-22T02:45:09;6.75;;;3.15;;
15356;SDS011;7778;48.792;9.260;2023-07-22T02:47:57;3.22;;;2.30;;
15356;SDS011;7778;48.792;9.260;2023-07-22T02:50:42;3.42;;;2.40;;
15356;SDS011;7778;48.792;9.260;2023-07-22T02:53:28;2.80;;;1.95;;
15356;SDS011;7778;48.792;9.260;2023-07-22T02:56:13;3.92;;;2.47;;
15356;SDS011;7778;48.792;9.260;2023-07-22T02:58:59;3.63;;;2.20;;
15356;SDS011;7778;48.792;9.260;2023-07-22T03:01:45;4.75;;;2.20;;
15356;SDS011;7778;48.792;9.260;2023-07-22T03:04:32;5.90;;;2.17;;
15356;SDS011;7778;48.792;9.260;2023-07-22T03:07:18;3.72;;;2.13;;
15356;SDS011;7778;48.792;9.260;2023-07-22T03:10:04;4.40;;;2.08;;
15356;SDS011;7778;48.792;9.260;2023-07-22T03:12:51;5.38;;;2.15;;
15356;SDS011;7778;48.792;9.260;2023-07-22T03:15:38;2.63;;;1.85;;
15356;SDS011;7778;48.792;9.260;2023-07-22T03:18:24;3.00;;;2.08;;
15356;SDS011;7778;48.792;9.260;2023-07-22T03:21:11;4.55;;;2.63;;
15356;SDS011;7778;48.792;9.260;2023-07-22T03:23:57;2.90;;;1.85;;
15356;SDS011;7778;48.792;9.260;2023-07-22T03:26:42;4.10;;;2.33;;
15356;SDS011;7778;48.792;9.260;2023-07-22T03:29:28;3.20;;;2.10;;
15356;SDS011;7778;48.792;9.260;2023-07-22T03:32:14;4.00;;;2.00;;
15356;SDS011;7778;48.792;9.260;2023-07-22T03:34:59;4.15;;;2.13;;
15356;SDS011;7778;48.792;9.260;2023-07-22T03:37:47;3.42;;;2.17;;
15356;SDS011;7778;48.792;9.260;2023-07-22T03:40:33;3.67;;;2.22;;
15356;SDS011;7778;48.792;9.260;2023-07-22T03:43:18;4.05;;;2.00;;
15356;SDS011;7778;48.792;9.260;2023-07-22T03:46:04;5.32;;;1.80;;
15356;SDS011;7778;48.792;9.260;2023-07-22T03:48:49;3.08;;;2.13;;
15356;SDS011;7778;48.792;9.260;2023-07-22T03:51:34;3.58;;;2.33;;
15356;SDS011;7778;48.792;9.260;2023-07-22T03:54:21;7.00;;;3.10;;
15356;SDS011;7778;48.792;9.260;2023-07-22T03:57:07;2.85;;;2.20;;
15356;SDS011;7778;48.792;9.260;2023-07-22T03:59:53;5.53;;;2.10;;
15356;SDS011;7778;48.792;9.260;2023-07-22T04:02:38;2.53;;;2.15;;
15356;SDS011;7778;48.792;9.260;2023-07-22T04:05:24;4.07;;;2.10;;
15356;SDS011;7778;48.792;9.260;2023-07-22T04:08:10;1.95;;;1.70;;
15356;SDS011;7778;48.792;9.260;2023-07-22T04:10:57;4.07;;;2.22;;
15356;SDS011;7778;48.792;9.260;2023-07-22T04:13:43;2.88;;;1.83;;
15356;SDS011;7778;48.792;9.260;2023-07-22T04:16:28;4.78;;;2.13;;
15356;SDS011;7778;48.792;9.260;2023-07-22T04:19:15;2.78;;;2.03;;
15356;SDS011;7778;48.792;9.260;2023-07-22T04:22:01;4.43;;;2.28;;
15356;SDS011;7778;48.792;9.260;2023-07-22T04:24:48;3.72;;;2.10;;
15356;SDS011;7778;48.792;9.260;2023-07-22T04:27:35;2.78;;;1.73;;
15356;SDS011;7778;48.792;9.260;2023-07-22T04:30:21;2.75;;;1.80;;
15356;SDS011;7778;48.792;9.260;2023-07-22T04:33:08;3.97;;;2.20;;
15356;SDS011;7778;48.792;9.260;2023-07-22T04:35:55;3.58;;;1.90;;
15356;SDS011;7778;48.792;9.260;2023-07-22T04:38:42;3.70;;;1.80;;
15356;SDS011;7778;48.792;9.260;2023-07-22T04:41:28;3.47;;;2.30;;
15356;SDS011;7778;48.792;9.260;2023-07-22T04:44:15;2.55;;;1.98;;
15356;SDS011;7778;48.792;9.260;2023-07-22T04:47:01;2.38;;;1.77;;
15356;SDS011;7778;48.792;9.260;2023-07-22T04:49:47;2.63;;;2.00;;
15356;SDS011;7778;48.792;9.260;2023-07-22T04:52:32;2.00;;;1.60;;
15356;SDS011;7778;48.792;9.260;2023-07-22T04:55:18;3.47;;;2.13;;
15356;SDS011;7778;48.792;9.260;2023-07-22T04:58:04;2.95;;;2.10;;
15356;SDS011;7778;48.792;9.260;2023-07-22T05:00:51;3.65;;;2.05;;
15356;SDS011;7778;48.792;9.260;2023-07-22T05:03:36;2.60;;;1.88;;
15356;SDS011;7778;48.792;9.260;2023-07-22T05:06:22;4.28;;;1.85;;
15356;SDS011;7778;48.792;9.260;2023-07-22T05:09:07;2.58;;;2.08;;
15356;SDS011;7778;48.792;9.260;2023-07-22T05:11:53;2.75;;;1.92;;
15356;SDS011;7778;48.792;9.260;2023-07-22T05:14:38;2.75;;;1.90;;
15356;SDS011;7778;48.792;9.260;2023-07-22T05:17:25;3.47;;;2.15;;
15356;SDS011;7778;48.792;9.260;2023-07-22T05:20:13;3.72;;;2.10;;
15356;SDS011;7778;48.792;9.260;2023-07-22T05:22:58;2.58;;;2.13;;
15356;SDS011;7778;48.792;9.260;2023-07-22T05:25:50;4.13;;;1.75;;
15356;SDS011;7778;48.792;9.260;2023-07-22T05:28:37;3.70;;;2.17;;
15356;SDS011;7778;48.792;9.260;2023-07-22T05:31:22;2.40;;;1.70;;
15356;SDS011;7778;48.792;9.260;2023-07-22T05:34:09;3.35;;;2.05;;
15356;SDS011;7778;48.792;9.260;2023-07-22T05:36:55;3.33;;;2.10;;
15356;SDS011;7778;48.792;9.260;2023-07-22T05:39:40;2.72;;;1.60;;
15356;SDS011;7778;48.792;9.260;2023-07-22T05:42:26;3.85;;;1.92;;
15356;SDS011;7778;48.792;9.260;2023-07-22T05:45:11;5.40;;;2.10;;
15356;SDS011;7778;48.792;9.260;2023-07-22T05:47:58;2.92;;;1.65;;
15356;SDS011;7778;48.792;9.260;2023-07-22T05:50:45;3.78;;;2.03;;
15356;SDS011;7778;48.792;9.260;2023-07-22T05:53:31;3.47;;;2.25;;
15356;SDS011;7778;48.792;9.260;2023-07-22T05:56:18;4.07;;;1.90;;
15356;SDS011;7778;48.792;9.260;2023-07-22T05:59:03;4.47;;;1.90;;
15356;SDS011;7778;48.792;9.260;2023-07-22T06:01:50;3.08;;;2.00;;
15356;SDS011;7778;48.792;9.260;2023-07-22T06:04:36;1.98;;;1.80;;
15356;SDS011;7778;48.792;9.260;2023-07-22T06:07:23;2.67;;;1.67;;
15356;SDS011;7778;48.792;9.260;2023-07-22T06:10:09;4.50;;;1.95;;
15356;SDS011;7778;48.792;9.260;2023-07-22T06:12:55;2.35;;;1.77;;
15356;SDS011;7778;48.792;9.260;2023-07-22T06:15:40;3.05;;;1.80;;
15356;SDS011;7778;48.792;9.260;2023-07-22T06:18:26;2.20;;;1.70;;
15356;SDS011;7778;48.792;9.260;2023-07-22T06:21:11;2.92;;;1.67;;
15356;SDS011;7778;48.792;9.260;2023-07-22T06:23:58;2.00;;;1.55;;
15356;SDS011;7778;48.792;9.260;2023-07-22T06:26:44;2.90;;;2.15;;
15356;SDS011;7778;48.792;9.260;2023-07-22T06:29:30;2.80;;;2.15;;
15356;SDS011;7778;48.792;9.260;2023-07-22T06:32:15;3.28;;;1.88;;
15356;SDS011;7778;48.792;9.260;2023-07-22T06:35:01;4.45;;;2.28;;
15356;SDS011;7778;48.792;9.260;2023-07-22T06:37:46;2.55;;;1.88;;
15356;SDS011;7778;48.792;9.260;2023-07-22T06:40:33;2.88;;;1.52;;
15356;SDS011;7778;48.792;9.260;2023-07-22T06:43:19;2.30;;;1.63;;
15356;SDS011;7778;48.792;9.260;2023-07-22T06:46:04;4.68;;;2.10;;
15356;SDS011;7778;48.792;9.260;2023-07-22T06:48:50;2.97;;;1.88;;
15356;SDS011;7778;48.792;9.260;2023-07-22T06:51:35;3.33;;;1.98;;
15356;SDS011;7778;48.792;9.260;2023-07-22T06:54:21;2.35;;;1.70;;
15356;SDS011;7778;48.792;9.260;2023-07-22T06:57:08;2.47;;;1.85;;
15356;SDS011;7778;48.792;9.260;2023-07-22T06:59:54;3.35;;;1.83;;
15356;SDS011;7778;48.792;9.260;2023-07-22T07:02:40;3.15;;;1.73;;
15356;SDS011;7778;48.792;9.260;2023-07-22T07:05:26;2.03;;;1.65;;
15356;SDS011;7778;48.792;9.260;2023-07-22T07:08:12;2.80;;;2.03;;
15356;SDS011;7778;48.792;9.260;2023-07-22T07:10:58;2.30;;;1.90;;
15356;SDS011;7778;48.792;9.260;2023-07-22T07:13:46;2.38;;;1.67;;
15356;SDS011;7778;48.792;9.260;2023-07-22T07:16:32;2.38;;;1.85;;
15356;SDS011;7778;48.792;9.260;2023-07-22T07:19:18;2.75;;;1.88;;
15356;SDS011;7778;48.792;9.260;2023-07-22T07:22:04;2.95;;;1.60;;
15356;SDS011;7778;48.792;9.260;2023-07-22T07:24:50;4.15;;;2.35;;
15356;SDS011;7778;48.792;9.260;2023-07-22T07:27:36;3.17;;;2.10;;
15356;SDS011;7778;48.792;9.260;2023-07-22T07:30:23;4.25;;;1.75;;
15356;SDS011;7778;48.792;9.260;2023-07-22T07:33:08;2.67;;;1.95;;
15356;SDS011;7778;48.792;9.260;2023-07-22T07:35:54;3.83;;;2.10;;
15356;SDS011;7778;48.792;9.260;2023-07-22T07:38:39;3.65;;;1.90;;
15356;SDS011;7778;48.792;9.260;2023-07-22T07:41:25;2.50;;;1.85;;
15356;SDS011;7778;48.792;9.260;2023-07-22T07:44:10;2.83;;;1.67;;
15356;SDS011;7778;48.792;9.260;2023-07-22T07:46:57;4.22;;;1.70;;
15356;SDS011;7778;48.792;9.260;2023-07-22T07:49:43;1.80;;;1.67;;
15356;SDS011;7778;48.792;9.260;2023-07-22T07:52:29;2.83;;;2.25;;
15356;SDS011;7778;48.792;9.260;2023-07-22T07:55:15;3.50;;;1.90;;
15356;SDS011;7778;48.792;9.260;2023-07-22T07:58:00;3.35;;;1.80;;
15356;SDS011;7778;48.792;9.260;2023-07-22T08:00:46;3.53;;;1.67;;
15356;SDS011;7778;48.792;9.260;2023-07-22T08:03:33;2.38;;;1.83;;
15356;SDS011;7778;48.792;9.260;2023-07-22T08:06:20;3.38;;;2.10;;
15356;SDS011;7778;48.792;9.260;2023-07-22T08:09:09;3.60;;;1.95;;
15356;SDS011;7778;48.792;9.260;2023-07-22T08:12:00;2.00;;;1.63;;
15356;SDS011;7778;48.792;9.260;2023-07-22T08:14:46;3.58;;;2.00;;
15356;SDS011;7778;48.792;9.260;2023-07-22T08:17:32;2.20;;;1.60;;
15356;SDS011;7778;48.792;9.260;2023-07-22T08:20:19;2.50;;;1.90;;
15356;SDS011;7778;48.792;9.260;2023-07-22T08:23:06;2.00;;;1.35;;
15356;SDS011;7778;48.792;9.260;2023-07-22T08:25:51;2.40;;;1.65;;
15356;SDS011;7778;48.792;9.260;2023-07-22T08:28:37;2.88;;;1.60;;
15356;SDS011;7778;48.792;9.260;2023-07-22T08:31:23;4.30;;;2.45;;
15356;SDS011;7778;48.792;9.260;2023-07-22T08:34:09;1.98;;;1.60;;
15356;SDS011;7778;48.792;9.260;2023-07-22T08:36:56;1.40;;;1.20;;
15356;SDS011;7778;48.792;9.260;2023-07-22T08:39:41;3.17;;;1.63;;
15356;SDS011;7778;48.792;9.260;2023-07-22T08:42:27;1.58;;;1.40;;
15356;SDS011;7778;48.792;9.260;2023-07-22T08:45:16;2.90;;;1.60;;
15356;SDS011;7778;48.792;9.260;2023-07-22T08:48:03;1.38;;;1.25;;
15356;SDS011;7778;48.792;9.260;2023-07-22T08:50:52;2.42;;;1.60;;
15356;SDS011;7778;48.792;9.260;2023-07-22T08:53:41;1.25;;;1.15;;
15356;SDS011;7778;48.792;9.260;2023-07-22T08:56:28;1.63;;;1.30;;
15356;SDS011;7778;48.792;9.260;2023-07-22T08:59:14;1.65;;;1.13;;
15356;SDS011;7778;48.792;9.260;2023-07-22T09:02:00;2.63;;;1.45;;
15356;SDS011;7778;48.792;9.260;2023-07-22T09:04:47;1.95;;;1.35;;
15356;SDS011;7778;48.792;9.260;2023-07-22T09:07:32;1.23;;;1.13;;
15356;SDS011;7778;48.792;9.260;2023-07-22T09:10:19;2.33;;;1.52;;
15356;SDS011;7778;48.792;9.260;2023-07-22T09:13:06;1.92;;;1.50;;
15356;SDS011;7778;48.792;9.260;2023-07-22T09:15:52;3.17;;;1.92;;
15356;SDS011;7778;48.792;9.260;2023-07-22T09:18:39;1.63;;;1.50;;
15356;SDS011;7778;48.792;9.260;2023-07-22T09:21:25;2.55;;;1.40;;
15356;SDS011;7778;48.792;9.260;2023-07-22T09:24:21;1.83;;;1.58;;
15356;SDS011;7778;48.792;9.260;2023-07-22T09:27:09;3.88;;;1.70;;
15356;SDS011;7778;48.792;9.260;2023-07-22T09:29:55;1.65;;;1.40;;
15356;SDS011;7778;48.792;9.260;2023-07-22T09:32:41;5.65;;;1.95;;
15356;SDS011;7778;48.792;9.260;2023-07-22T09:35:27;1.58;;;1.30;;
15356;SDS011;7778;48.792;9.260;2023-07-22T09:38:15;1.77;;;1.30;;
15356;SDS011;7778;48.792;9.260;2023-07-22T09:41:08;4.93;;;1.70;;
15356;SDS011;7778;48.792;9.260;2023-07-22T09:43:55;1.95;;;1.75;;
15356;SDS011;7778;48.792;9.260;2023-07-22T09:46:41;2.20;;;1.98;;
15356;SDS011;7778;48.792;9.260;2023-07-22T09:49:26;2.00;;;1.33;;
15356;SDS011;7778;48.792;9.260;2023-07-22T09:52:12;1.85;;;1.50;;
15356;SDS011;7778;48.792;9.260;2023-07-22T09:54:58;1.73;;;1.20;;
15356;SDS011;7778;48.792;9.260;2023-07-22T09:57:45;1.75;;;1.25;;
15356;SDS011;7778;48.792;9.260;2023-07-22T10:00:36;2.67;;;1.80;;
15356;SDS011;7778;48.792;9.260;2023-07-22T10:03:22;4.63;;;1.50;;
15356;SDS011;7778;48.792;9.260;2023-07-22T10:06:14;3.03;;;1.42;;
15356;SDS011;7778;48.792;9.260;2023-07-22T10:09:01;1.30;;;1.20;;
15356;SDS011;7778;48.792;9.260;2023-07-22T10:11:50;1.42;;;1.33;;
15356;SDS011;7778;48.792;9.260;2023-07-22T10:14:36;2.97;;;1.27;;
15356;SDS011;7778;48.792;9.260;2023-07-22T10:17:23;2.63;;;1.10;;
15356;SDS011;7778;48.792;9.260;2023-07-22T10:20:10;1.42;;;1.20;;
15356;SDS011;7778;48.792;9.260;2023-07-22T10:23:00;2.95;;;1.27;;
15356;SDS011;7778;48.792;9.260;2023-07-22T10:25:46;2.03;;;1.48;;
15356;SDS011;7778;48.792;9.260;2023-07-22T10:28:32;1.40;;;1.30;;
15356;SDS011;7778;48.792;9.260;2023-07-22T10:31:18;5.82;;;2.55;;
15356;SDS011;7778;48.792;9.260;2023-07-22T10:34:05;2.13;;;1.40;;
15356;SDS011;7778;48.792;9.260;2023-07-22T10:36:51;6.82;;;3.15;;
15356;SDS011;7778;48.792;9.260;2023-07-22T10:39:40;5.25;;;2.03;;
15356;SDS011;7778;48.792;9.260;2023-07-22T10:42:26;3.42;;;1.52;;
15356;SDS011;7778;48.792;9.260;2023-07-22T10:45:23;2.55;;;1.67;;
15356;SDS011;7778;48.792;9.260;2023-07-22T10:48:11;2.15;;;1.55;;
15356;SDS011;7778;48.792;9.260;2023-07-22T10:51:05;3.15;;;1.88;;
15356;SDS011;7778;48.792;9.260;2023-07-22T10:53:53;1.88;;;1.42;;
15356;SDS011;7778;48.792;9.260;2023-07-22T10:56:41;2.15;;;1.25;;
15356;SDS011;7778;48.792;9.260;2023-07-22T10:59:28;2.60;;;1.50;;
15356;SDS011;7778;48.792;9.260;2023-07-22T11:02:22;3.40;;;1.77;;
15356;SDS011;7778;48.792;9.260;2023-07-22T11:05:10;2.63;;;1.70;;
15356;SDS011;7778;48.792;9.260;2023-07-22T11:08:03;1.75;;;1.50;;
15356;SDS011;7778;48.792;9.260;2023-07-22T11:10:53;1.85;;;1.30;;
15356;SDS011;7778;48.792;9.260;2023-07-22T11:13:39;1.77;;;1.30;;
15356;SDS011;7778;48.792;9.260;2023-07-22T11:16:28;2.70;;;1.80;;
15356;SDS011;7778;48.792;9.260;2023-07-22T11:19:14;2.33;;;1.42;;
15356;SDS011;7778;48.792;9.260;2023-07-22T11:22:02;2.80;;;1.50;;
15356;SDS011;7778;48.792;9.260;2023-07-22T11:24:50;2.05;;;1.60;;
15356;SDS011;7778;48.792;9.260;2023-07-22T11:27:39;1.70;;;1.10;;
15356;SDS011;7778;48.792;9.260;2023-07-22T11:30:25;2.40;;;1.23;;
15356;SDS011;7778;48.792;9.260;2023-07-22T11:33:12;1.55;;;1.35;;
15356;SDS011;7778;48.792;9.260;2023-07-22T11:35:58;2.08;;;1.50;;
15356;SDS011;7778;48.792;9.260;2023-07-22T11:38:43;2.33;;;1.10;;
15356;SDS011;7778;48.792;9.260;2023-07-22T11:41:30;3.45;;;1.55;;
15356;SDS011;7778;48.792;9.260;2023-07-22T11:44:18;1.63;;;1.20;;
15356;SDS011;7778;48.792;9.260;2023-07-22T11:47:06;2.47;;;1.70;;
15356;SDS011;7778;48.792;9.260;2023-07-22T11:49:52;2.38;;;1.58;;
15356;SDS011;7778;48.792;9.260;2023-07-22T11:52:38;3.17;;;1.58;;
15356;SDS011;7778;48.792;9.260;2023-07-22T11:55:24;1.45;;;1.27;;
15356;SDS011;7778;48.792;9.260;2023-07-22T11:58:11;1.85;;;1.50;;
15356;SDS011;7778;48.792;9.260;2023-07-22T12:01:07;2.00;;;1.50;;
15356;SDS011;7778;48.792;9.260;2023-07-22T12:03:56;1.45;;;1.25;;
15356;SDS011;7778;48.792;9.260;2023-07-22T12:06:41;1.80;;;1.30;;
15356;SDS011;7778;48.792;9.260;2023-07-22T12:09:27;2.15;;;1.52;;
15356;SDS011;7778;48.792;9.260;2023-07-22T12:12:13;2.20;;;1.67;;
15356;SDS011;7778;48.792;9.260;2023-07-22T12:15:02;1.95;;;1.63;;
15356;SDS011;7778;48.792;9.260;2023-07-22T12:17:58;2.63;;;1.45;;
15356;SDS011;7778;48.792;9.260;2023-07-22T12:20:45;2.30;;;1.60;;
15356;SDS011;7778;48.792;9.260;2023-07-22T12:23:31;1.70;;;1.30;;
15356;SDS011;7778;48.792;9.260;2023-07-22T12:26:16;2.35;;;1.60;;
15356;SDS011;7778;48.792;9.260;2023-07-22T12:29:02;18.45;;;2.25;;
15356;SDS011;7778;48.792;9.260;2023-07-22T12:31:48;1.58;;;1.30;;
15356;SDS011;7778;48.792;9.260;2023-07-22T12:34:34;2.75;;;1.67;;
15356;SDS011;7778;48.792;9.260;2023-07-22T12:37:20;2.88;;;1.60;;
15356;SDS011;7778;48.792;9.260;2023-07-22T12:40:06;1.98;;;1.50;;
15356;SDS011;7778;48.792;9.260;2023-07-22T12:42:54;3.17;;;2.00;;
15356;SDS011;7778;48.792;9.260;2023-07-22T12:45:39;3.13;;;1.60;;
15356;SDS011;7778;48.792;9.260;2023-07-22T12:48:26;1.80;;;1.40;;
15356;SDS011;7778;48.792;9.260;2023-07-22T12:51:12;1.75;;;1.30;;
15356;SDS011;7778;48.792;9.260;2023-07-22T12:53:58;1.60;;;1.48;;
15356;SDS011;7778;48.792;9.260;2023-07-22T12:56:43;3.55;;;1.83;;
15356;SDS011;7778;48.792;9.260;2023-07-22T12:59:29;1.33;;;1.20;;
15356;SDS011;7778;48.792;9.260;2023-07-22T13:02:15;3.35;;;1.80;;
15356;SDS011;7778;48.792;9.260;2023-07-22T13:05:03;1.92;;;1.50;;
15356;SDS011;7778;48.792;9.260;2023-07-22T13:07:50;1.95;;;1.55;;
15356;SDS011;7778;48.792;9.260;2023-07-22T13:10:36;3.30;;;1.50;;
15356;SDS011;7778;48.792;9.260;2023-07-22T13:13:22;4.10;;;1.90;;
15356;SDS011;7778;48.792;9.260;2023-07-22T13:16:08;3.88;;;1.88;;
15356;SDS011;7778;48.792;9.260;2023-07-22T13:18:54;2.83;;;1.75;;
15356;SDS011;7778;48.792;9.260;2023-07-22T13:21:41;2.53;;;1.63;;
15356;SDS011;7778;48.792;9.260;2023-07-22T13:24:27;2.60;;;1.65;;
15356;SDS011;7778;48.792;9.260;2023-07-22T13:27:13;4.65;;;1.52;;
15356;SDS011;7778;48.792;9.260;2023-07-22T13:29:58;2.78;;;2.10;;
15356;SDS011;7778;48.792;9.260;2023-07-22T13:32:44;2.50;;;1.77;;
15356;SDS011;7778;48.792;9.260;2023-07-22T13:35:30;2.33;;;1.50;;
15356;SDS011;7778;48.792;9.260;2023-07-22T13:38:17;2.53;;;2.17;;
15356;SDS011;7778;48.792;9.260;2023-07-22T13:41:03;1.98;;;1.67;;
15356;SDS011;7778;48.792;9.260;2023-07-22T13:43:48;3.08;;;1.83;;
15356;SDS011;7778;48.792;9.260;2023-07-22T13:46:34;2.53;;;1.80;;
15356;SDS011;7778;48.792;9.260;2023-07-22T13:49:19;2.13;;;1.80;;
15356;SDS011;7778;48.792;9.260;2023-07-22T13:52:05;2.83;;;1.73;;
15356;SDS011;7778;48.792;9.260;2023-07-22T13:54:52;2.30;;;1.98;;
15356;SDS011;7778;48.792;9.260;2023-07-22T13:57:38;2.60;;;1.90;;
15356;SDS011;7778;48.792;9.260;2023-07-22T14:00:23;2.70;;;1.70;;
15356;SDS011;7778;48.792;9.260;2023-07-22T14:03:09;2.72;;;1.77;;
15356;SDS011;7778;48.792;9.260;2023-07-22T14:05:55;2.58;;;1.83;;
15356;SDS011;7778;48.792;9.260;2023-07-22T14:08:40;3.03;;;2.00;;
15356;SDS011;7778;48.792;9.260;2023-07-22T14:11:27;2.83;;;2.00;;
15356;SDS011;7778;48.792;9.260;2023-07-22T14:14:13;3.30;;;2.13;;
15356;SDS011;7778;48.792;9.260;2023-07-22T14:16:58;2.67;;;2.03;;
15356;SDS011;7778;48.792;9.260;2023-07-22T14:19:44;2.40;;;1.90;;
15356;SDS011;7778;48.792;9.260;2023-07-22T14:22:29;2.83;;;2.10;;
15356;SDS011;7778;48.792;9.260;2023-07-22T14:25:15;3.35;;;2.08;;
15356;SDS011;7778;48.792;9.260;2023-07-22T14:28:02;3.92;;;2.10;;
15356;SDS011;7778;48.792;9.260;2023-07-22T14:30:48;3.17;;;1.90;;
15356;SDS011;7778;48.792;9.260;2023-07-22T14:33:34;3.88;;;2.00;;
15356;SDS011;7778;48.792;9.260;2023-07-22T14:36:20;3.40;;;1.85;;
15356;SDS011;7778;48.792;9.260;2023-07-22T14:39:06;3.20;;;2.00;;
15356;SDS011;7778;48.792;9.260;2023-07-22T14:41:51;3.03;;;1.77;;
15356;SDS011;7778;48.792;9.260;2023-07-22T14:44:39;3.53;;;2.15;;
15356;SDS011;7778;48.792;9.260;2023-07-22T14:47:24;2.45;;;1.90;;
15356;SDS011;7778;48.792;9.260;2023-07-22T14:50:10;4.00;;;2.42;;
15356;SDS011;7778;48.792;9.260;2023-07-22T14:52:55;2.85;;;2.00;;
15356;SDS011;7778;48.792;9.260;2023-07-22T14:55:42;2.90;;;1.98;;
15356;SDS011;7778;48.792;9.260;2023-07-22T14:58:28;3.75;;;2.30;;
15356;SDS011;7778;48.792;9.260;2023-07-22T15:01:16;4.40;;;2.00;;
15356;SDS011;7778;48.792;9.260;2023-07-22T15:04:01;3.53;;;2.10;;
15356;SDS011;7778;48.792;9.260;2023-07-22T15:06:47;3.47;;;2.08;;
15356;SDS011;7778;48.792;9.260;2023-07-22T15:09:33;5.00;;;1.95;;
15356;SDS011;7778;48.792;9.260;2023-07-22T15:12:18;3.33;;;2.38;;
15356;SDS011;7778;48.792;9.260;2023-07-22T15:15:04;3.13;;;2.35;;
15356;SDS011;7778;48.792;9.260;2023-07-22T15:17:53;3.22;;;2.25;;
15356;SDS011;7778;48.792;9.260;2023-07-22T15:20:39;3.88;;;2.42;;
15356;SDS011;7778;48.792;9.260;2023-07-22T15:23:25;2.95;;;2.20;;
15356;SDS011;7778;48.792;9.260;2023-07-22T15:26:13;4.85;;;2.47;;
15356;SDS011;7778;48.792;9.260;2023-07-22T15:29:00;3.53;;;2.30;;
15356;SDS011;7778;48.792;9.260;2023-07-22T15:31:46;3.78;;;2.45;;
15356;SDS011;7778;48.792;9.260;2023-07-22T15:34:33;4.93;;;3.10;;
15356;SDS011;7778;48.792;9.260;2023-07-22T15:37:18;5.90;;;3.85;;
15356;SDS011;7778;48.792;9.260;2023-07-22T15:40:04;4.18;;;2.70;;
15356;SDS011;7778;48.792;9.260;2023-07-22T15:42:51;4.38;;;2.55;;
15356;SDS011;7778;48.792;9.260;2023-07-22T15:45:37;4.18;;;2.58;;
15356;SDS011;7778;48.792;9.260;2023-07-22T15:48:22;25.42;;;16.50;;
15356;SDS011;7778;48.792;9.260;2023-07-22T15:51:09;55.28;;;35.58;;
15356;SDS011;7778;48.792;9.260;2023-07-22T15:53:55;78.88;;;50.72;;
15356;SDS011;7778;48.792;9.260;2023-07-22T15:56:40;54.55;;;38.13;;
15356;SDS011;7778;48.792;9.260;2023-07-22T15:59:26;49.85;;;37.53;;
15356;SDS011;7778;48.792;9.260;2023-07-22T16:02:12;227.95;;;161.55;;
15356;SDS011;7778;48.792;9.260;2023-07-22T16:04:58;30.75;;;21.38;;
15356;SDS011;7778;48.792;9.260;2023-07-22T16:07:45;105.75;;;60.35;;
15356;SDS011;7778;48.792;9.260;2023-07-22T16:10:31;157.73;;;103.65;;
15356;SDS011;7778;48.792;9.260;2023-07-22T16:13:17;68.30;;;47.92;;
15356;SDS011;7778;48.792;9.260;2023-07-22T16:16:03;102.95;;;67.47;;
15356;SDS011;7778;48.792;9.260;2023-07-22T16:18:50;92.47;;;59.53;;
15356;SDS011;7778;48.792;9.260;2023-07-22T16:21:36;57.28;;;40.35;;
15356;SDS011;7778;48.792;9.260;2023-07-22T16:24:23;41.38;;;29.20;;
15356;SDS011;7778;48.792;9.260;2023-07-22T16:27:10;210.07;;;127.07;;
15356;SDS011;7778;48.792;9.260;2023-07-22T16:29:55;128.70;;;68.40;;
15356;SDS011;7778;48.792;9.260;2023-07-22T16:32:41;83.78;;;53.47;;
15356;SDS011;7778;48.792;9.260;2023-07-22T16:35:27;53.70;;;35.35;;
15356;SDS011;7778;48.792;9.260;2023-07-22T16:38:14;35.13;;;20.20;;
15356;SDS011;7778;48.792;9.260;2023-07-22T16:41:01;96.70;;;56.95;;
15356;SDS011;7778;48.792;9.260;2023-07-22T16:43:47;38.70;;;23.33;;
15356;SDS011;7778;48.792;9.260;2023-07-22T16:46:33;34.38;;;20.58;;
15356;SDS011;7778;48.792;9.260;2023-07-22T16:49:18;64.32;;;38.22;;
15356;SDS011;7778;48.792;9.260;2023-07-22T16:52:04;86.85;;;48.30;;
15356;SDS011;7778;48.792;9.260;2023-07-22T16:54:50;29.88;;;18.50;;